Time;durP1;ratioP1;P1;durP2;ratioP2;P2;SDS_P1;SDS_P2;PMS_P1;PMS_P2;Temp;Humidity;BMP_temperature;BMP_pressure;BME280_temperature;BME280_humidity;BME280_pressure;Samples;Min_cycle;Max_cycle;Signal;HPM_P1;HPM_P2
2021/12/27 00:00:47;;;;;;;71.50;41.45;;;4.60;1.00;;;;;;5136322;27;20096;-78
2021/12/27 00:03:15;;;;;;;75.68;43.38;;;4.50;1.00;;;;;;5136275;27;20044;-77
2021/12/27 00:05:43;;;;;;;60.88;35.15;;;4.60;99.90;;;;;;5117141;27;20039;-76
2021/12/27 00:08:11;;;;;;;55.25;34.15;;;4.40;1.00;;;;;;5135494;27;20079;-78
2021/12/27 00:10:40;;;;;;;55.92;33.78;;;4.30;1.00;;;;;;5117565;27;20069;-77
2021/12/27 00:13:09;;;;;;;55.55;33.13;;;4.20;50.20;;;;;;5136010;27;20046;-80
2021/12/27 00:15:39;;;;;;;52.85;32.80;;;4.30;99.90;;;;;;5117865;27;20039;-78
2021/12/27 00:18:06;;;;;;;55.20;33.00;;;4.30;99.90;;;;;;5135145;27;20057;-79
2021/12/27 00:20:34;;;;;;;51.65;31.08;;;4.20;99.90;;;;;;5119842;28;20043;-79
2021/12/27 00:23:02;;;;;;;53.72;31.17;;;4.20;1.00;;;;;;5160290;27;20416;-78
2021/12/27 00:25:29;;;;;;;55.92;31.30;;;4.10;13.60;;;;;;5159879;27;20038;-80
2021/12/27 00:27:58;;;;;;;55.38;31.75;;;4.10;21.60;;;;;;5150192;27;20401;-79
2021/12/27 00:30:27;;;;;;;57.17;33.45;;;4.00;99.90;;;;;;5154564;27;20512;-77
2021/12/27 00:32:55;;;;;;;58.90;33.72;;;4.10;99.90;;;;;;5167080;27;20047;-80
2021/12/27 00:35:26;;;;;;;59.30;32.63;;;4.10;99.90;;;;;;5160194;27;20066;-78
2021/12/27 00:37:54;;;;;;;54.72;32.17;;;4.10;1.00;;;;;;5142748;27;20049;-79
2021/12/27 00:40:22;;;;;;;52.45;31.23;;;4.10;1.00;;;;;;5143225;27;20493;-78
2021/12/27 00:42:50;;;;;;;54.33;31.77;;;4.10;1.00;;;;;;5160973;27;20038;-79
2021/12/27 00:45:21;;;;;;;45.78;27.95;;;4.10;99.90;;;;;;5141219;27;20116;-77
2021/12/27 00:47:48;;;;;;;44.97;27.58;;;4.10;1.00;;;;;;5161281;27;20378;-77
2021/12/27 00:50:16;;;;;;;47.60;27.77;;;4.10;99.90;;;;;;5140962;27;20439;-77
2021/12/27 00:52:43;;;;;;;40.60;23.92;;;4.10;99.90;;;;;;5160427;27;20042;-79
2021/12/27 00:55:13;;;;;;;40.40;25.48;;;4.00;1.00;;;;;;5141977;27;20454;-78
2021/12/27 00:57:41;;;;;;;40.47;23.38;;;4.00;99.90;;;;;;5161137;27;20411;-78
2021/12/27 01:00:11;;;;;;;39.47;24.88;;;4.00;99.90;;;;;;5141310;27;20047;-77
2021/12/27 01:02:41;;;;;;;42.85;24.92;;;3.90;1.00;;;;;;5160557;27;20145;-77
2021/12/27 01:05:09;;;;;;;34.33;22.15;;;3.80;1.00;;;;;;5140026;27;20046;-78
2021/12/27 01:07:37;;;;;;;39.08;22.10;;;3.70;85.50;;;;;;5160320;27;20059;-78
2021/12/27 01:10:21;;;;;;;36.35;20.42;;;3.70;99.90;;;;;;5159962;27;20063;-77
2021/12/27 01:12:52;;;;;;;31.75;19.33;;;3.70;99.90;;;;;;5141807;27;20047;-79
2021/12/27 01:15:47;;;;;;;28.85;18.25;;;3.70;99.90;;;;;;5160278;27;20047;-77
2021/12/27 01:18:17;;;;;;;29.90;18.23;;;3.70;99.90;;;;;;5159655;27;20053;-80
2021/12/27 01:20:45;;;;;;;26.85;16.95;;;3.70;99.90;;;;;;5159382;27;20095;-77
2021/12/27 01:23:12;;;;;;;27.25;17.70;;;3.60;99.90;;;;;;5149573;27;20472;-78
2021/12/27 01:25:40;;;;;;;30.65;18.42;;;3.60;99.90;;;;;;5129458;27;20054;-77
2021/12/27 01:28:08;;;;;;;26.20;16.55;;;3.50;1.00;;;;;;5147795;27;20447;-79
2021/12/27 01:30:38;;;;;;;26.25;15.60;;;3.50;1.00;;;;;;5139624;27;20375;-77
2021/12/27 01:33:08;;;;;;;24.17;14.70;;;3.50;1.00;;;;;;5140036;27;20043;-77
2021/12/27 01:35:37;;;;;;;20.15;14.23;;;3.50;1.00;;;;;;5140916;27;20125;-76
2021/12/27 01:38:05;;;;;;;21.33;13.57;;;3.50;99.90;;;;;;5141371;27;20077;-77
2021/12/27 01:40:34;;;;;;;23.55;14.48;;;3.40;99.90;;;;;;5140246;27;20043;-78
2021/12/27 01:43:08;;;;;;;21.63;14.05;;;3.40;1.00;;;;;;5141690;27;20046;-78
2021/12/27 01:45:37;;;;;;;23.35;14.10;;;3.30;1.00;;;;;;5141132;27;20489;-79
2021/12/27 01:48:07;;;;;;;20.23;13.43;;;3.30;1.00;;;;;;5140254;27;20497;-80
2021/12/27 01:50:39;;;;;;;20.67;13.10;;;3.30;1.00;;;;;;5140132;27;20046;-78
2021/12/27 01:53:08;;;;;;;22.55;14.07;;;3.30;1.00;;;;;;5141287;27;20055;-78
2021/12/27 01:55:36;;;;;;;22.17;13.20;;;3.30;1.00;;;;;;5141821;27;20041;-79
2021/12/27 01:58:05;;;;;;;22.13;13.25;;;3.30;1.00;;;;;;5158775;27;20110;-78
2021/12/27 02:00:33;;;;;;;18.40;12.30;;;3.30;99.90;;;;;;5169830;27;20042;-78
2021/12/27 02:03:03;;;;;;;21.33;12.23;;;3.40;1.00;;;;;;5141711;27;20042;-77
2021/12/27 02:05:31;;;;;;;20.23;12.85;;;3.40;1.00;;;;;;5167665;27;20130;-77
2021/12/27 02:08:00;;;;;;;19.52;12.73;;;3.40;1.00;;;;;;5172418;27;20059;-77
2021/12/27 02:10:28;;;;;;;20.17;12.35;;;3.40;99.90;;;;;;5155683;27;20047;-77
2021/12/27 02:12:55;;;;;;;20.77;12.55;;;3.40;99.90;;;;;;5169513;27;20062;-77
2021/12/27 02:15:23;;;;;;;21.92;12.98;;;3.40;99.90;;;;;;5175906;27;20045;-78
2021/12/27 02:17:50;;;;;;;20.35;12.18;;;3.40;99.90;;;;;;5158047;27;20066;-79
2021/12/27 02:20:22;;;;;;;22.05;13.60;;;3.40;99.90;;;;;;5157785;27;20046;-79
2021/12/27 02:22:51;;;;;;;19.67;13.15;;;3.40;99.90;;;;;;5176128;27;20039;-78
2021/12/27 02:25:18;;;;;;;22.63;13.60;;;3.40;99.90;;;;;;5166849;27;20541;-76
2021/12/27 02:27:46;;;;;;;20.02;12.75;;;3.50;99.90;;;;;;5160343;27;20402;-79
2021/12/27 02:30:17;;;;;;;21.02;13.23;;;3.50;99.90;;;;;;5175856;27;20070;-78
2021/12/27 02:32:50;;;;;;;19.52;12.93;;;3.50;99.90;;;;;;5154518;27;20051;-78
2021/12/27 02:35:21;;;;;;;20.50;12.98;;;3.50;99.90;;;;;;5154988;27;20031;-79
2021/12/27 02:37:48;;;;;;;19.80;12.70;;;3.50;92.60;;;;;;5172910;27;20070;-79
2021/12/27 02:40:17;;;;;;;21.08;13.07;;;3.50;99.90;;;;;;5145245;27;20049;-79
2021/12/27 02:42:58;;;;;;;20.92;12.48;;;3.50;5.70;;;;;;5162889;27;20464;-79
2021/12/27 02:45:27;;;;;;;21.02;12.80;;;3.50;1.00;;;;;;5160685;27;20121;-79
2021/12/27 02:47:55;;;;;;;21.88;13.23;;;3.40;50.30;;;;;;5165871;27;20042;-79
2021/12/27 02:50:25;;;;;;;18.67;12.38;;;3.50;1.00;;;;;;5162486;27;20043;-79
2021/12/27 02:52:53;;;;;;;19.02;11.95;;;3.40;71.50;;;;;;5144565;27;20047;-78
2021/12/27 02:55:21;;;;;;;16.85;11.05;;;3.40;99.90;;;;;;5160880;27;20501;-79
2021/12/27 02:57:50;;;;;;;16.98;11.63;;;3.40;34.10;;;;;;5168710;27;20061;-78
2021/12/27 03:00:20;;;;;;;17.38;12.23;;;3.40;1.00;;;;;;5174043;27;20042;-79
2021/12/27 03:02:49;;;;;;;16.83;11.85;;;3.40;11.20;;;;;;5174002;27;20039;-78
2021/12/27 03:05:19;;;;;;;17.23;11.70;;;3.40;1.00;;;;;;5173310;27;20042;-78
2021/12/27 03:07:50;;;;;;;17.30;10.90;;;3.40;1.00;;;;;;5139470;27;20038;-80
2021/12/27 03:10:20;;;;;;;18.98;11.63;;;3.40;1.00;;;;;;5155436;27;20043;-78
2021/12/27 03:12:49;;;;;;;18.15;11.07;;;3.40;1.00;;;;;;5149897;27;20039;-80
2021/12/27 03:15:17;;;;;;;15.98;10.80;;;3.40;1.00;;;;;;5156269;27;20069;-79
2021/12/27 03:17:47;;;;;;;18.58;11.95;;;3.40;1.00;;;;;;5148485;27;20045;-78
2021/12/27 03:20:17;;;;;;;15.98;11.10;;;3.30;1.00;;;;;;5144707;27;20043;-79
2021/12/27 03:22:45;;;;;;;19.35;11.82;;;3.20;1.00;;;;;;5148175;27;20043;-80
2021/12/27 03:25:16;;;;;;;18.35;11.32;;;3.20;1.00;;;;;;5145644;27;20066;-79
2021/12/27 03:27:44;;;;;;;20.05;12.90;;;3.20;1.00;;;;;;5136414;27;20054;-78
2021/12/27 03:30:16;;;;;;;17.83;11.35;;;3.10;1.00;;;;;;5129989;27;20401;-80
2021/12/27 03:32:44;;;;;;;18.58;11.05;;;3.10;1.00;;;;;;5128873;27;20490;-80
2021/12/27 03:35:15;;;;;;;15.32;11.13;;;3.10;1.00;;;;;;5139349;27;20059;-82
2021/12/27 03:37:45;;;;;;;19.55;11.07;;;3.10;1.00;;;;;;5131368;27;20054;-83
2021/12/27 03:40:16;;;;;;;17.98;11.30;;;3.00;1.00;;;;;;5152420;27;20043;-82
2021/12/27 03:42:49;;;;;;;15.93;11.10;;;3.00;1.00;;;;;;5124561;28;20070;-82
2021/12/27 03:45:19;;;;;;;15.77;10.77;;;3.00;1.00;;;;;;5126267;28;20061;-83
2021/12/27 03:47:47;;;;;;;17.00;11.38;;;2.90;1.00;;;;;;5127176;28;20053;-83
2021/12/27 03:50:14;;;;;;;18.23;11.18;;;2.90;1.00;;;;;;5107667;28;20131;-82
2021/12/27 03:52:42;;;;;;;15.18;10.57;;;2.90;1.00;;;;;;5143737;27;20134;-83
2021/12/27 03:55:13;;;;;;;16.25;10.68;;;2.90;3.70;;;;;;5145961;27;20074;-83
2021/12/27 03:57:42;;;;;;;14.77;10.65;;;3.00;99.90;;;;;;5126103;27;20039;-83
2021/12/27 04:00:28;;;;;;;15.23;10.13;;;3.00;99.90;;;;;;5124506;27;20055;-81
2021/12/27 04:02:57;;;;;;;14.65;10.07;;;3.10;99.90;;;;;;5123960;27;20054;-82
2021/12/27 04:05:25;;;;;;;13.82;9.15;;;3.10;99.90;;;;;;5140865;27;20477;-82
2021/12/27 04:07:59;;;;;;;14.75;9.30;;;3.10;1.00;;;;;;5127979;27;20123;-81
2021/12/27 04:10:30;;;;;;;15.07;10.35;;;3.20;1.00;;;;;;5128247;27;20121;-79
2021/12/27 04:12:58;;;;;;;16.77;10.13;;;3.20;1.00;;;;;;5137813;27;20046;-82
2021/12/27 04:15:25;;;;;;;13.48;9.45;;;3.10;1.00;;;;;;5118426;28;20104;-82
2021/12/27 04:17:53;;;;;;;16.52;11.23;;;3.10;1.00;;;;;;5132826;27;20066;-81
2021/12/27 04:20:22;;;;;;;15.60;10.55;;;3.10;1.00;;;;;;5114001;27;20092;-81
2021/12/27 04:22:50;;;;;;;18.00;11.23;;;3.10;1.00;;;;;;5128834;28;20039;-80
2021/12/27 04:25:19;;;;;;;18.67;11.30;;;3.20;1.00;;;;;;5119043;28;20051;-81
2021/12/27 04:27:50;;;;;;;15.52;10.55;;;3.10;1.00;;;;;;5128826;28;20383;-82
2021/12/27 04:30:21;;;;;;;16.60;10.85;;;3.10;1.00;;;;;;5121534;28;20044;-81
2021/12/27 04:32:50;;;;;;;17.95;10.10;;;3.10;1.00;;;;;;5117768;28;20119;-82
2021/12/27 04:35:19;;;;;;;16.77;10.50;;;3.00;1.00;;;;;;5117894;28;20052;-82
2021/12/27 04:37:47;;;;;;;16.42;11.18;;;3.00;1.00;;;;;;5116233;28;20067;-83
2021/12/27 04:40:17;;;;;;;19.23;12.80;;;3.00;1.00;;;;;;5121363;28;20069;-82
2021/12/27 04:42:55;;;;;;;22.00;14.60;;;2.90;1.00;;;;;;5116768;28;20052;-83
2021/12/27 04:45:23;;;;;;;20.15;13.57;;;3.00;1.00;;;;;;5119294;28;20054;-83
2021/12/27 04:47:51;;;;;;;18.25;11.75;;;3.00;1.00;;;;;;5122889;28;20035;-80
2021/12/27 04:50:18;;;;;;;21.20;12.45;;;3.00;1.00;;;;;;5132484;28;20044;-80
2021/12/27 04:52:47;;;;;;;17.10;11.57;;;3.00;1.00;;;;;;5156990;27;20043;-82
2021/12/27 04:55:14;;;;;;;17.55;12.18;;;3.00;1.00;;;;;;5142609;27;20123;-83
2021/12/27 04:57:42;;;;;;;17.17;11.73;;;3.00;1.00;;;;;;5136288;28;20035;-82
2021/12/27 05:00:12;;;;;;;17.88;11.80;;;3.00;1.00;;;;;;5136081;28;20092;-81
2021/12/27 05:02:40;;;;;;;22.65;13.40;;;3.00;99.90;;;;;;5116907;28;20554;-82
2021/12/27 05:05:08;;;;;;;20.45;13.60;;;2.90;99.90;;;;;;5135106;28;20107;-82
2021/12/27 05:07:36;;;;;;;22.02;13.98;;;2.90;99.90;;;;;;5134326;28;20130;-83
2021/12/27 05:10:04;;;;;;;22.15;14.23;;;2.90;1.00;;;;;;5147736;28;20027;-79
2021/12/27 05:12:31;;;;;;;21.40;13.35;;;3.00;1.00;;;;;;5117804;28;20055;-81
2021/12/27 05:14:59;;;;;;;21.33;12.60;;;3.00;1.00;;;;;;5104043;28;20114;-81
2021/12/27 05:17:28;;;;;;;17.90;12.57;;;3.10;1.00;;;;;;5120202;28;20054;-82
2021/12/27 05:19:55;;;;;;;19.08;11.93;;;3.10;1.00;;;;;;5135463;28;20470;-82
2021/12/27 05:22:24;;;;;;;17.98;12.50;;;3.10;99.90;;;;;;5118436;27;20047;-81
2021/12/27 05:24:51;;;;;;;19.45;12.48;;;3.20;99.90;;;;;;5140065;27;20405;-82
2021/12/27 05:27:19;;;;;;;19.38;12.27;;;3.20;99.90;;;;;;5121000;27;20496;-81
2021/12/27 05:29:46;;;;;;;17.70;12.05;;;3.30;99.90;;;;;;5139795;27;20055;-82
2021/12/27 05:32:14;;;;;;;16.20;11.25;;;3.30;28.20;;;;;;5139509;27;20045;-83
2021/12/27 05:34:43;;;;;;;18.30;10.43;;;3.30;1.00;;;;;;5138716;27;20043;-80
2021/12/27 05:37:10;;;;;;;21.98;12.88;;;3.20;1.00;;;;;;5138898;27;20048;-81
2021/12/27 05:39:38;;;;;;;22.95;12.75;;;3.10;1.00;;;;;;5138636;27;20427;-82
2021/12/27 05:42:07;;;;;;;21.17;13.50;;;3.10;1.00;;;;;;5139664;27;20046;-82
2021/12/27 05:44:35;;;;;;;23.98;13.60;;;3.10;1.00;;;;;;5139706;27;20073;-82
2021/12/27 05:47:02;;;;;;;19.10;11.85;;;3.10;1.00;;;;;;5121725;27;20133;-82
2021/12/27 05:49:30;;;;;;;19.85;11.27;;;3.10;1.00;;;;;;5121671;27;20063;-80
2021/12/27 05:51:59;;;;;;;20.75;12.75;;;3.00;1.00;;;;;;5122987;27;20058;-81
2021/12/27 05:54:26;;;;;;;15.85;10.77;;;3.00;1.00;;;;;;5123367;27;20095;-80
2021/12/27 05:56:54;;;;;;;26.70;15.40;;;3.10;1.00;;;;;;5140842;27;20130;-80
2021/12/27 05:59:21;;;;;;;18.85;11.70;;;3.00;1.00;;;;;;5123005;27;20051;-81
2021/12/27 06:01:48;;;;;;;19.48;12.15;;;3.00;1.00;;;;;;5140622;27;20039;-83
2021/12/27 06:04:16;;;;;;;20.75;12.35;;;2.90;1.00;;;;;;5138449;27;20039;-81
2021/12/27 06:06:43;;;;;;;17.75;10.95;;;2.90;1.00;;;;;;5120275;27;20058;-82
2021/12/27 06:09:12;;;;;;;19.00;11.38;;;2.90;72.30;;;;;;5120527;27;20039;-82
2021/12/27 06:11:40;;;;;;;21.88;12.45;;;2.90;99.90;;;;;;5135662;27;20035;-80
2021/12/27 06:14:07;;;;;;;20.58;12.30;;;3.00;99.90;;;;;;5146939;27;20125;-80
2021/12/27 06:16:35;;;;;;;20.50;12.10;;;3.00;99.90;;;;;;5126860;27;20045;-81
2021/12/27 06:19:03;;;;;;;20.38;11.75;;;3.00;47.10;;;;;;5136415;27;20126;-81
2021/12/27 06:21:33;;;;;;;19.30;11.23;;;3.00;54.40;;;;;;5138148;27;20070;-81
2021/12/27 06:24:01;;;;;;;20.58;13.07;;;2.90;99.90;;;;;;5138104;27;20055;-80
2021/12/27 06:26:30;;;;;;;24.73;13.18;;;2.90;99.90;;;;;;5137651;27;20043;-81
2021/12/27 06:28:57;;;;;;;19.63;12.45;;;2.80;99.90;;;;;;5138134;27;20053;-81
2021/12/27 06:31:25;;;;;;;22.75;14.32;;;2.80;99.90;;;;;;5137541;27;20045;-80
2021/12/27 06:33:53;;;;;;;24.05;13.60;;;2.80;99.90;;;;;;5118227;27;20055;-81
2021/12/27 06:36:20;;;;;;;25.63;14.23;;;2.80;99.90;;;;;;5136748;27;20556;-81
2021/12/27 06:38:48;;;;;;;33.85;16.55;;;2.80;99.90;;;;;;5137752;27;20506;-80
2021/12/27 06:41:15;;;;;;;27.65;15.85;;;2.80;99.90;;;;;;5138103;27;20036;-81
2021/12/27 06:43:44;;;;;;;31.30;15.38;;;2.80;99.90;;;;;;5137659;27;20043;-81
2021/12/27 06:46:12;;;;;;;27.02;13.70;;;2.80;99.90;;;;;;5138446;27;20237;-81
2021/12/27 06:48:39;;;;;;;27.77;13.70;;;2.90;99.90;;;;;;5142954;27;20036;-81
2021/12/27 06:51:07;;;;;;;28.60;14.82;;;2.90;99.90;;;;;;5142142;27;20512;-81
2021/12/27 06:53:34;;;;;;;29.67;15.27;;;3.00;99.90;;;;;;5120271;27;20130;-79
2021/12/27 06:56:04;;;;;;;28.15;17.55;;;2.90;99.90;;;;;;5137317;27;20043;-81
2021/12/27 06:58:32;;;;;;;24.65;15.38;;;3.00;99.90;;;;;;5119343;27;20153;-79
2021/12/27 07:01:05;;;;;;;29.08;16.05;;;3.10;99.90;;;;;;5137175;27;20452;-80
2021/12/27 07:03:33;;;;;;;28.13;16.33;;;3.10;99.90;;;;;;5119749;27;20038;-80
2021/12/27 07:06:02;;;;;;;25.45;15.60;;;3.10;30.20;;;;;;5137836;27;20186;-80
2021/12/27 07:08:31;;;;;;;26.42;14.48;;;3.10;48.40;;;;;;5115826;28;20039;-83
2021/12/27 07:10:59;;;;;;;22.00;13.55;;;3.10;99.90;;;;;;5115451;28;20057;-82
2021/12/27 07:13:26;;;;;;;19.98;13.27;;;3.20;41.10;;;;;;5110946;28;20122;-82
2021/12/27 07:15:56;;;;;;;21.23;14.10;;;3.20;1.00;;;;;;5123864;28;20040;-81
2021/12/27 07:18:25;;;;;;;20.85;12.00;;;3.20;1.00;;;;;;5126208;28;20059;-80
2021/12/27 07:20:53;;;;;;;20.83;12.48;;;3.20;1.00;;;;;;5113932;28;20087;-80
2021/12/27 07:23:21;;;;;;;24.65;16.38;;;3.30;1.00;;;;;;5134132;28;20058;-81
2021/12/27 07:25:49;;;;;;;20.35;12.65;;;3.40;1.00;;;;;;5129254;28;20039;-79
2021/12/27 07:28:17;;;;;;;19.27;12.65;;;3.50;1.00;;;;;;5127646;28;20028;-79
2021/12/27 07:30:45;;;;;;;20.73;13.50;;;3.40;1.00;;;;;;5118920;28;20050;-81
2021/12/27 07:33:12;;;;;;;21.98;14.02;;;3.40;1.00;;;;;;5117151;28;20043;-81
2021/12/27 07:35:42;;;;;;;25.42;14.98;;;3.40;1.00;;;;;;5114998;28;20047;-81
2021/12/27 07:38:10;;;;;;;24.75;14.80;;;3.40;1.00;;;;;;5099996;28;20036;-79
2021/12/27 07:40:38;;;;;;;26.65;17.05;;;3.60;1.00;;;;;;5094464;28;20052;-81
2021/12/27 07:43:05;;;;;;;31.83;18.23;;;3.50;1.00;;;;;;5116916;28;20051;-78
2021/12/27 07:45:33;;;;;;;34.65;19.98;;;3.50;1.00;;;;;;5115008;28;20043;-80
2021/12/27 07:48:01;;;;;;;34.85;18.42;;;3.50;1.00;;;;;;5116405;28;20039;-79
2021/12/27 07:50:28;;;;;;;31.70;18.02;;;3.40;1.00;;;;;;5098186;28;20071;-81
2021/12/27 07:52:57;;;;;;;33.92;19.27;;;3.40;1.00;;;;;;5096292;28;20074;-82
2021/12/27 07:55:27;;;;;;;28.75;18.38;;;3.40;1.00;;;;;;5099467;28;20138;-81
2021/12/27 07:57:56;;;;;;;30.30;17.17;;;3.50;1.00;;;;;;5111570;28;20044;-81
2021/12/27 08:00:24;;;;;;;28.25;16.48;;;3.40;1.00;;;;;;5099923;28;20084;-81
2021/12/27 08:02:52;;;;;;;25.98;15.90;;;3.50;1.00;;;;;;5115840;28;20039;-80
2021/12/27 08:05:20;;;;;;;26.27;15.63;;;3.50;1.00;;;;;;5097944;28;20048;-81
2021/12/27 08:07:47;;;;;;;22.25;14.15;;;3.50;1.00;;;;;;5112836;27;20106;-82
2021/12/27 08:10:17;;;;;;;26.65;15.13;;;3.60;1.00;;;;;;5139473;27;20049;-81
2021/12/27 08:12:45;;;;;;;19.35;10.50;;;3.60;1.00;;;;;;5120187;27;20043;-83
2021/12/27 08:15:14;;;;;;;22.38;12.38;;;3.60;99.90;;;;;;5138654;27;20383;-81
2021/12/27 08:17:42;;;;;;;19.73;12.32;;;3.60;99.90;;;;;;5139470;27;20132;-82
2021/12/27 08:20:11;;;;;;;25.55;14.07;;;3.60;99.90;;;;;;5125628;28;20105;-79
2021/12/27 08:22:38;;;;;;;24.55;15.23;;;3.60;99.90;;;;;;5153331;27;20055;-80
2021/12/27 08:25:07;;;;;;;16.48;10.82;;;3.70;99.90;;;;;;5139136;28;20039;-83
2021/12/27 08:27:37;;;;;;;20.08;13.38;;;3.60;99.90;;;;;;5138109;28;20063;-81
2021/12/27 08:30:06;;;;;;;22.92;13.77;;;3.60;99.90;;;;;;5119159;28;20054;-82
2021/12/27 08:32:35;;;;;;;20.83;11.85;;;3.60;99.90;;;;;;5136577;28;20134;-80
2021/12/27 08:35:02;;;;;;;23.10;13.50;;;3.60;99.90;;;;;;5141103;28;20129;-78
2021/12/27 08:37:30;;;;;;;19.15;11.23;;;3.60;99.90;;;;;;5129797;28;20039;-79
2021/12/27 08:39:58;;;;;;;23.17;12.63;;;3.60;99.90;;;;;;5119904;28;20050;-80
2021/12/27 08:42:26;;;;;;;23.98;14.13;;;3.50;99.90;;;;;;5136525;28;20478;-81
2021/12/27 08:44:55;;;;;;;24.58;14.43;;;3.50;99.90;;;;;;5118947;28;20395;-82
2021/12/27 08:47:22;;;;;;;24.88;14.73;;;3.50;99.90;;;;;;5137529;28;20038;-81
2021/12/27 08:49:50;;;;;;;25.92;14.48;;;3.60;99.90;;;;;;5135717;28;20051;-82
2021/12/27 08:52:18;;;;;;;22.42;14.00;;;3.60;99.90;;;;;;5137346;27;20046;-81
2021/12/27 08:54:45;;;;;;;28.25;16.17;;;3.60;99.90;;;;;;5137025;27;20045;-80
2021/12/27 08:57:13;;;;;;;29.85;16.33;;;3.60;99.90;;;;;;5137312;27;20039;-81
2021/12/27 08:59:40;;;;;;;30.02;18.65;;;3.60;99.90;;;;;;5121808;27;20080;-82
2021/12/27 09:02:09;;;;;;;29.38;16.85;;;3.60;99.90;;;;;;5125909;27;20454;-81
2021/12/27 09:04:37;;;;;;;25.20;15.25;;;3.60;99.90;;;;;;5149075;27;20047;-82
2021/12/27 09:07:05;;;;;;;24.27;15.85;;;3.70;99.90;;;;;;5125354;27;20586;-79
2021/12/27 09:09:32;;;;;;;32.38;19.75;;;3.80;99.90;;;;;;5127285;27;20448;-79
2021/12/27 09:12:01;;;;;;;34.95;22.13;;;3.80;99.90;;;;;;5145121;27;20049;-82
2021/12/27 09:14:28;;;;;;;32.90;19.60;;;3.90;99.90;;;;;;5145860;27;20069;-82
2021/12/27 09:16:56;;;;;;;31.90;18.58;;;3.90;99.90;;;;;;5126690;27;20058;-82
2021/12/27 09:19:24;;;;;;;22.33;14.95;;;4.10;99.90;;;;;;5149928;27;20042;-81
2021/12/27 09:21:52;;;;;;;30.77;19.25;;;4.20;99.90;;;;;;5133711;27;20043;-82
2021/12/27 09:24:20;;;;;;;36.78;20.90;;;4.20;27.20;;;;;;5144222;27;20047;-81
2021/12/27 09:26:48;;;;;;;26.70;16.02;;;4.20;58.70;;;;;;5130527;27;20158;-80
2021/12/27 09:29:15;;;;;;;23.15;14.30;;;4.20;1.00;;;;;;5124225;27;20100;-79
2021/12/27 09:31:43;;;;;;;23.25;14.07;;;4.20;1.00;;;;;;5138307;27;20050;-80
2021/12/27 09:34:11;;;;;;;27.65;16.25;;;4.20;1.00;;;;;;5143627;27;20051;-80
2021/12/27 09:36:40;;;;;;;23.63;13.23;;;4.10;1.00;;;;;;5121167;27;20050;-80
2021/12/27 09:39:08;;;;;;;27.23;15.60;;;4.10;1.00;;;;;;5139979;27;20069;-81
2021/12/27 09:41:36;;;;;;;27.95;16.35;;;4.00;1.00;;;;;;5139417;27;20043;-83
2021/12/27 09:44:04;;;;;;;32.47;17.98;;;4.20;1.00;;;;;;5123092;27;20078;-80
2021/12/27 09:46:32;;;;;;;34.70;19.48;;;4.10;1.00;;;;;;5145154;27;20043;-81
2021/12/27 09:49:02;;;;;;;34.47;18.73;;;4.20;1.00;;;;;;5126078;27;20047;-80
2021/12/27 09:51:30;;;;;;;36.05;19.73;;;4.20;1.00;;;;;;5125115;27;20047;-81
2021/12/27 09:53:59;;;;;;;31.55;17.45;;;4.30;1.00;;;;;;5128368;27;20447;-81
2021/12/27 09:56:26;;;;;;;33.17;16.17;;;4.30;1.00;;;;;;5146154;27;20108;-82
2021/12/27 09:58:54;;;;;;;27.08;15.50;;;4.40;1.00;;;;;;5145100;27;20030;-82
2021/12/27 10:01:22;;;;;;;30.08;15.45;;;4.50;1.00;;;;;;5157541;27;20046;-81
2021/12/27 10:03:51;;;;;;;29.58;15.07;;;4.60;1.00;;;;;;5132754;27;20119;-81
2021/12/27 10:06:21;;;;;;;28.15;15.35;;;4.70;1.00;;;;;;5134875;27;20099;-82
2021/12/27 10:08:51;;;;;;;26.67;13.13;;;4.90;1.00;;;;;;5129865;27;20119;-81
2021/12/27 10:11:21;;;;;;;27.75;14.65;;;5.10;1.00;;;;;;5102098;28;20073;-81
2021/12/27 10:14:02;;;;;;;32.65;16.25;;;5.10;1.00;;;;;;5112006;28;20059;-81
2021/12/27 10:16:31;;;;;;;25.40;13.82;;;5.20;1.00;;;;;;5086280;28;20043;-80
2021/12/27 10:19:00;;;;;;;25.90;13.88;;;5.30;1.00;;;;;;5104348;27;20078;-81
2021/12/27 10:21:28;;;;;;;24.73;12.48;;;5.50;1.00;;;;;;5111101;28;20047;-81
2021/12/27 10:24:07;;;;;;;25.10;12.25;;;5.50;1.00;;;;;;5102172;28;20111;-80
2021/12/27 10:26:37;;;;;;;28.70;14.02;;;5.60;1.00;;;;;;5118132;27;20048;-81
2021/12/27 10:29:15;;;;;;;28.17;12.82;;;5.60;1.00;;;;;;5109312;28;20050;-79
2021/12/27 10:32:00;;;;;;;20.02;10.60;;;5.60;1.00;;;;;;5119021;28;20067;-82
2021/12/27 10:34:30;;;;;;;15.25;9.43;;;5.60;1.00;;;;;;5120799;27;20585;-81
2021/12/27 10:36:59;;;;;;;20.25;12.82;;;5.40;1.00;;;;;;5129209;27;20130;-79
2021/12/27 10:39:30;;;;;;;21.50;13.35;;;5.40;1.00;;;;;;5109826;27;20130;-77
2021/12/27 10:42:08;;;;;;;18.45;11.55;;;5.40;1.00;;;;;;5129077;27;20059;-83
2021/12/27 10:44:36;;;;;;;18.80;10.57;;;5.30;1.00;;;;;;5125247;27;20047;-83
2021/12/27 10:47:05;;;;;;;12.80;8.20;;;5.10;1.00;;;;;;5143508;27;20138;-79
2021/12/27 10:49:46;;;;;;;19.88;10.43;;;5.20;1.00;;;;;;5145132;27;20035;-81
2021/12/27 10:52:15;;;;;;;15.05;9.48;;;5.20;1.00;;;;;;5133701;28;20047;-79
2021/12/27 10:54:43;;;;;;;17.00;10.50;;;5.20;1.00;;;;;;5148222;27;20035;-76
2021/12/27 10:57:14;;;;;;;14.63;9.20;;;5.30;1.00;;;;;;5119635;27;20048;-78
2021/12/27 10:59:41;;;;;;;14.25;9.10;;;5.20;1.00;;;;;;5119689;27;20115;-77
2021/12/27 11:02:10;;;;;;;14.95;9.07;;;5.30;1.00;;;;;;5118467;27;20461;-77
2021/12/27 11:04:39;;;;;;;16.02;10.20;;;5.20;1.00;;;;;;5130622;27;20089;-78
2021/12/27 11:07:06;;;;;;;14.55;9.10;;;5.20;1.00;;;;;;5132661;27;20521;-78
2021/12/27 11:09:35;;;;;;;13.10;9.23;;;5.30;1.00;;;;;;5103731;28;20083;-78
2021/12/27 11:12:04;;;;;;;15.95;9.88;;;5.30;1.00;;;;;;5125072;27;20069;-80
2021/12/27 11:14:33;;;;;;;15.45;8.88;;;5.30;1.00;;;;;;5111383;27;20070;-77
2021/12/27 11:17:01;;;;;;;12.80;9.40;;;5.30;1.00;;;;;;5120267;27;20048;-77
2021/12/27 11:19:29;;;;;;;14.13;9.15;;;5.40;1.00;;;;;;5098769;28;20527;-77
2021/12/27 11:21:57;;;;;;;13.68;8.73;;;5.30;1.00;;;;;;5100899;28;20077;-80
2021/12/27 11:24:25;;;;;;;12.15;7.78;;;5.30;1.00;;;;;;5102538;28;20063;-79
2021/12/27 11:26:56;;;;;;;12.80;7.75;;;5.40;1.00;;;;;;5104199;27;20045;-80
2021/12/27 11:29:25;;;;;;;9.65;6.13;;;5.50;1.00;;;;;;5108216;27;20043;-79
2021/12/27 11:32:12;;;;;;;9.02;6.30;;;5.60;1.00;;;;;;5107428;27;20067;-82
2021/12/27 11:34:55;;;;;;;12.25;8.48;;;5.50;1.00;;;;;;5119714;27;20062;-82
2021/12/27 11:37:34;;;;;;;13.57;9.48;;;5.70;1.00;;;;;;5129002;27;20048;-80
2021/12/27 11:40:06;;;;;;;10.30;7.05;;;5.80;1.00;;;;;;5101929;28;20051;-81
2021/12/27 11:42:53;;;;;;;11.02;7.57;;;5.90;1.00;;;;;;5118323;28;20073;-80
2021/12/27 11:45:42;;;;;;;17.05;10.85;;;6.00;1.00;;;;;;5130439;27;20066;-80
2021/12/27 11:48:13;;;;;;;15.95;9.73;;;6.00;99.90;;;;;;5121668;27;20134;-81
2021/12/27 11:51:09;;;;;;;18.42;10.90;;;6.00;99.90;;;;;;5135444;27;20126;-81
2021/12/27 11:53:45;;;;;;;14.77;8.95;;;6.00;1.00;;;;;;5131793;27;20035;-83
2021/12/27 11:56:18;;;;;;;13.65;9.70;;;5.90;99.90;;;;;;5151866;27;20050;-81
2021/12/27 11:58:50;;;;;;;13.68;9.38;;;5.90;99.90;;;;;;5112478;28;20046;-82
2021/12/27 12:01:36;;;;;;;18.67;11.73;;;5.90;99.90;;;;;;5138246;27;20050;-85
2021/12/27 12:04:06;;;;;;;22.52;12.85;;;5.80;1.00;;;;;;5124039;27;20050;-81
2021/12/27 12:06:41;;;;;;;18.30;10.15;;;5.80;99.90;;;;;;5122098;28;20485;-82
2021/12/27 12:09:15;;;;;;;15.32;10.35;;;5.80;99.90;;;;;;5139826;27;20039;-81
2021/12/27 12:11:43;;;;;;;13.68;9.40;;;5.90;1.00;;;;;;5139252;27;20047;-83
2021/12/27 12:14:32;;;;;;;16.60;10.02;;;6.00;99.90;;;;;;5121865;27;20039;-84
2021/12/27 12:17:01;;;;;;;16.33;10.52;;;5.90;99.90;;;;;;5138698;27;20049;-85
2021/12/27 12:19:42;;;;;;;18.33;11.30;;;5.90;1.00;;;;;;5119932;28;20031;-84
2021/12/27 12:22:34;;;;;;;18.42;11.20;;;5.90;99.90;;;;;;5142312;27;20047;-85
2021/12/27 12:25:12;;;;;;;14.25;9.32;;;5.90;99.90;;;;;;5097586;28;20044;-84
2021/12/27 12:27:51;;;;;;;22.08;13.40;;;5.90;99.90;;;;;;5099433;28;20070;-85
2021/12/27 12:30:19;;;;;;;17.48;10.23;;;6.00;99.90;;;;;;5136526;28;20493;-83
2021/12/27 12:32:58;;;;;;;19.05;12.05;;;6.10;99.90;;;;;;5121479;27;20042;-84
2021/12/27 12:35:43;;;;;;;29.55;15.40;;;6.10;99.90;;;;;;5123495;28;20071;-82
2021/12/27 12:38:20;;;;;;;29.55;15.45;;;6.20;99.90;;;;;;5122207;28;20054;-84
2021/12/27 12:40:59;;;;;;;33.70;16.65;;;6.10;99.90;;;;;;5105963;27;20043;-84
2021/12/27 12:43:40;;;;;;;33.75;16.10;;;6.00;99.90;;;;;;5128073;27;20081;-83
2021/12/27 12:46:23;;;;;;;40.08;20.13;;;5.80;99.90;;;;;;5111060;27;20069;-83
2021/12/27 12:49:01;;;;;;;68.82;28.67;;;5.80;99.90;;;;;;5156623;27;20066;-83
2021/12/27 12:51:40;;;;;;;72.15;30.05;;;5.80;99.90;;;;;;5162657;27;20039;-80
2021/12/27 12:54:22;;;;;;;82.35;33.70;;;5.60;1.00;;;;;;5156592;27;20043;-83
2021/12/27 12:56:51;;;;;;;104.78;41.53;;;5.60;1.00;;;;;;5146264;27;20044;-83